Time;durP1;ratioP1;P1;durP2;ratioP2;P2;SDS_P1;SDS_P2;PMS_P1;PMS_P2;Temp;Humidity;BMP_temperature;BMP_pressure;BME280_temperature;BME280_humidity;BME280_pressure;Samples;Min_cycle;Max_cycle;Signal;HPM_P1;HPM_P2
2024/01/12 00:00:21;;;;;;;144.88;41.72;;;;;;;;;;4912760;29;20108;-66
2024/01/12 00:02:47;;;;;;;187.93;43.85;;;;;;;;;;4913973;29;20096;-66
2024/01/12 00:05:14;;;;;;;231.93;55.03;;;;;;;;;;4915651;29;20059;-69
2024/01/12 00:07:41;;;;;;;148.68;42.30;;;;;;;;;;4917961;29;20056;-68
2024/01/12 00:10:11;;;;;;;124.18;38.38;;;;;;;;;;4914336;29;20048;-66
2024/01/12 00:12:37;;;;;;;128.63;35.10;;;;;;;;;;4918772;29;20062;-65
2024/01/12 00:15:05;;;;;;;102.30;30.83;;;;;;;;;;4915485;29;20079;-65
2024/01/12 00:17:32;;;;;;;84.82;26.17;;;;;;;;;;4932414;29;20112;-66
2024/01/12 00:19:58;;;;;;;81.88;24.27;;;;;;;;;;4932525;29;20389;-66
2024/01/12 00:22:25;;;;;;;68.07;22.85;;;;;;;;;;4932377;29;20075;-66
2024/01/12 00:24:51;;;;;;;81.60;24.00;;;;;;;;;;4932434;29;20343;-66
2024/01/12 00:27:18;;;;;;;78.05;23.90;;;;;;;;;;4916036;29;20051;-67
2024/01/12 00:29:44;;;;;;;76.40;21.67;;;;;;;;;;4934949;29;20126;-71
2024/01/12 00:32:11;;;;;;;77.50;23.40;;;;;;;;;;4935401;29;20062;-66
2024/01/12 00:34:38;;;;;;;64.55;21.85;;;;;;;;;;4932929;29;20118;-67
2024/01/12 00:37:04;;;;;;;82.90;24.55;;;;;;;;;;4933448;29;20400;-70
2024/01/12 00:39:32;;;;;;;76.80;22.73;;;;;;;;;;4932239;29;20044;-67
2024/01/12 00:41:58;;;;;;;80.82;21.65;;;;;;;;;;4931880;29;20503;-67
2024/01/12 00:44:25;;;;;;;73.15;23.52;;;;;;;;;;4935091;29;20051;-67
2024/01/12 00:46:51;;;;;;;74.15;23.75;;;;;;;;;;4951015;29;20054;-67
2024/01/12 00:49:18;;;;;;;76.45;23.80;;;;;;;;;;4950867;29;20427;-67
2024/01/12 00:51:45;;;;;;;68.57;21.85;;;;;;;;;;4950841;28;20062;-70
2024/01/12 00:54:11;;;;;;;67.85;20.10;;;;;;;;;;4956365;29;20572;-73
2024/01/12 00:56:38;;;;;;;70.57;20.60;;;;;;;;;;4952905;29;20541;-69
2024/01/12 00:59:05;;;;;;;63.90;22.35;;;;;;;;;;4914811;29;20052;-68
2024/01/12 01:01:31;;;;;;;68.25;20.23;;;;;;;;;;4912892;29;20082;-69
2024/01/12 01:03:59;;;;;;;73.47;21.08;;;;;;;;;;4913035;29;20051;-68
2024/01/12 01:06:26;;;;;;;70.32;23.17;;;;;;;;;;4912953;29;20078;-68
2024/01/12 01:08:53;;;;;;;54.42;18.60;;;;;;;;;;4911635;29;20052;-68
2024/01/12 01:11:19;;;;;;;70.47;22.02;;;;;;;;;;4912655;29;20051;-68
2024/01/12 01:13:46;;;;;;;74.70;24.05;;;;;;;;;;4918585;29;20079;-68
2024/01/12 01:16:13;;;;;;;76.25;23.33;;;;;;;;;;4931799;29;20565;-68
2024/01/12 01:18:39;;;;;;;83.00;22.10;;;;;;;;;;4931423;29;20052;-68
2024/01/12 01:21:06;;;;;;;77.03;23.50;;;;;;;;;;4931341;29;20079;-71
2024/01/12 01:23:32;;;;;;;73.60;23.52;;;;;;;;;;4931873;29;20083;-69
2024/01/12 01:25:59;;;;;;;66.00;23.20;;;;;;;;;;4931222;29;20058;-69
2024/01/12 01:28:25;;;;;;;83.75;23.58;;;;;;;;;;4931327;29;20142;-69
2024/01/12 01:30:52;;;;;;;82.78;24.17;;;;;;;;;;4914336;29;20100;-69
2024/01/12 01:33:18;;;;;;;81.82;23.10;;;;;;;;;;4931164;29;20468;-69
2024/01/12 01:35:45;;;;;;;78.43;23.90;;;;;;;;;;4931188;29;20094;-68
2024/01/12 01:38:11;;;;;;;76.47;23.40;;;;;;;;;;4935002;29;20055;-69
2024/01/12 01:40:38;;;;;;;73.35;22.33;;;;;;;;;;4935023;29;20480;-69
2024/01/12 01:43:10;;;;;;;82.13;24.52;;;;;;;;;;4935293;29;20464;-69
2024/01/12 01:45:37;;;;;;;60.92;22.05;;;;;;;;;;4934378;29;20139;-69
2024/01/12 01:48:04;;;;;;;73.15;24.05;;;;;;;;;;4935121;29;20058;-69
2024/01/12 01:50:31;;;;;;;78.47;24.15;;;;;;;;;;4934894;29;20123;-68
2024/01/12 01:52:58;;;;;;;82.43;23.90;;;;;;;;;;4935224;29;20439;-68
2024/01/12 01:55:25;;;;;;;89.13;23.88;;;;;;;;;;4935120;29;20639;-68
2024/01/12 01:57:51;;;;;;;82.32;21.98;;;;;;;;;;4935070;29;20039;-68
2024/01/12 02:00:18;;;;;;;78.53;24.08;;;;;;;;;;4934972;29;20508;-68
2024/01/12 02:02:47;;;;;;;92.78;24.70;;;;;;;;;;4934547;29;20083;-68
2024/01/12 02:05:14;;;;;;;82.13;25.58;;;;;;;;;;4934880;29;20503;-68
2024/01/12 02:07:41;;;;;;;84.75;24.67;;;;;;;;;;4935031;29;20162;-68
2024/01/12 02:10:09;;;;;;;89.72;24.00;;;;;;;;;;4934763;29;20051;-68
2024/01/12 02:12:36;;;;;;;90.25;25.55;;;;;;;;;;4934678;29;20056;-68
2024/01/12 02:15:07;;;;;;;85.15;24.80;;;;;;;;;;4934554;29;20052;-68
2024/01/12 02:17:34;;;;;;;72.40;23.07;;;;;;;;;;4933537;29;20058;-68
2024/01/12 02:20:00;;;;;;;81.43;23.33;;;;;;;;;;4934624;29;20078;-68
2024/01/12 02:22:27;;;;;;;82.13;23.98;;;;;;;;;;4934786;29;20107;-68
2024/01/12 02:24:53;;;;;;;92.53;25.15;;;;;;;;;;4938712;29;20270;-69
2024/01/12 02:27:21;;;;;;;76.85;24.38;;;;;;;;;;4938699;29;20592;-68
2024/01/12 02:29:50;;;;;;;75.55;22.75;;;;;;;;;;4934518;29;20138;-68
2024/01/12 02:32:20;;;;;;;67.57;21.35;;;;;;;;;;4934547;29;20111;-68
2024/01/12 02:34:46;;;;;;;84.20;24.70;;;;;;;;;;4934412;29;20079;-68
2024/01/12 02:37:12;;;;;;;76.53;22.25;;;;;;;;;;4934176;29;20497;-68
2024/01/12 02:39:39;;;;;;;75.22;22.70;;;;;;;;;;4934557;29;20081;-68
2024/01/12 02:42:05;;;;;;;75.63;22.88;;;;;;;;;;4934531;29;20047;-68
2024/01/12 02:44:32;;;;;;;66.78;21.08;;;;;;;;;;4934174;29;20426;-69
2024/01/12 02:46:59;;;;;;;89.90;23.27;;;;;;;;;;4916485;29;20055;-69
2024/01/12 02:49:25;;;;;;;74.57;22.77;;;;;;;;;;4934703;29;20107;-71
2024/01/12 02:51:52;;;;;;;71.60;25.65;;;;;;;;;;4938575;29;20052;-72
2024/01/12 02:54:18;;;;;;;73.57;21.30;;;;;;;;;;4935585;29;20056;-68
2024/01/12 02:56:47;;;;;;;73.55;22.08;;;;;;;;;;4934255;29;20058;-68
2024/01/12 02:59:14;;;;;;;81.25;24.00;;;;;;;;;;4933898;29;20110;-69
2024/01/12 03:01:40;;;;;;;66.80;22.27;;;;;;;;;;4933880;29;20116;-68
2024/01/12 03:04:07;;;;;;;67.65;21.52;;;;;;;;;;4932465;29;20059;-68
2024/01/12 03:06:33;;;;;;;78.45;23.05;;;;;;;;;;4933752;29;20627;-68
2024/01/12 03:09:00;;;;;;;77.13;23.45;;;;;;;;;;4933777;29;20436;-68
2024/01/12 03:11:27;;;;;;;65.47;22.35;;;;;;;;;;4933633;29;20055;-68
2024/01/12 03:13:54;;;;;;;72.88;22.23;;;;;;;;;;4935448;29;20048;-72
2024/01/12 03:16:20;;;;;;;77.47;22.35;;;;;;;;;;4921904;29;20067;-73
2024/01/12 03:18:48;;;;;;;87.03;22.08;;;;;;;;;;4933163;29;20060;-71
2024/01/12 03:21:18;;;;;;;79.65;22.45;;;;;;;;;;4933435;29;20467;-69
2024/01/12 03:23:45;;;;;;;63.53;19.33;;;;;;;;;;4932520;29;20079;-68
2024/01/12 03:26:12;;;;;;;56.63;19.77;;;;;;;;;;4933405;29;20056;-68
2024/01/12 03:28:38;;;;;;;54.67;19.17;;;;;;;;;;4933557;29;20044;-68
2024/01/12 03:31:07;;;;;;;63.65;20.85;;;;;;;;;;4916733;29;20122;-68
2024/01/12 03:33:34;;;;;;;61.72;20.05;;;;;;;;;;4933503;29;20745;-68
2024/01/12 03:36:05;;;;;;;53.78;19.92;;;;;;;;;;4933294;29;20103;-68
2024/01/12 03:38:31;;;;;;;63.28;20.30;;;;;;;;;;4936245;29;20051;-72
2024/01/12 03:40:58;;;;;;;60.75;18.08;;;;;;;;;;4919269;29;20374;-68
2024/01/12 03:43:24;;;;;;;53.72;16.58;;;;;;;;;;4915980;29;20147;-69
2024/01/12 03:45:51;;;;;;;54.15;17.95;;;;;;;;;;4932937;29;20381;-69
2024/01/12 03:48:17;;;;;;;63.85;18.60;;;;;;;;;;4932144;29;20066;-68
2024/01/12 03:50:44;;;;;;;50.28;17.55;;;;;;;;;;4932557;29;20089;-68
2024/01/12 03:53:11;;;;;;;54.28;18.38;;;;;;;;;;4933165;29;20079;-68
2024/01/12 03:55:37;;;;;;;48.58;17.17;;;;;;;;;;4932887;29;20445;-68
2024/01/12 03:58:04;;;;;;;44.47;18.63;;;;;;;;;;4932791;29;20055;-69
2024/01/12 04:00:30;;;;;;;52.35;19.25;;;;;;;;;;4931579;29;20052;-68
2024/01/12 04:02:57;;;;;;;49.92;18.17;;;;;;;;;;4938027;29;20047;-69
2024/01/12 04:05:23;;;;;;;52.55;17.90;;;;;;;;;;4934379;29;20051;-70
2024/01/12 04:07:49;;;;;;;51.33;19.83;;;;;;;;;;4932837;29;20079;-68
2024/01/12 04:10:16;;;;;;;58.17;19.17;;;;;;;;;;4932977;29;20464;-69
2024/01/12 04:12:42;;;;;;;41.83;16.27;;;;;;;;;;4931448;29;20517;-68
2024/01/12 04:15:09;;;;;;;51.35;17.00;;;;;;;;;;4932432;29;20059;-71
2024/01/12 04:17:36;;;;;;;48.95;17.35;;;;;;;;;;4932297;29;20047;-68
2024/01/12 04:20:08;;;;;;;60.08;18.10;;;;;;;;;;4931933;29;20054;-68
2024/01/12 04:22:34;;;;;;;50.83;16.55;;;;;;;;;;4932531;29;20063;-68
2024/01/12 04:25:01;;;;;;;55.90;17.63;;;;;;;;;;4932150;29;20090;-69
2024/01/12 04:27:29;;;;;;;47.88;17.15;;;;;;;;;;4932316;29;20051;-69
2024/01/12 04:29:55;;;;;;;53.50;17.83;;;;;;;;;;4932119;29;20047;-69
2024/01/12 04:32:22;;;;;;;43.35;16.50;;;;;;;;;;4931842;29;20048;-69
2024/01/12 04:34:48;;;;;;;40.20;15.63;;;;;;;;;;4932074;29;20051;-69
2024/01/12 04:37:15;;;;;;;47.00;16.27;;;;;;;;;;4931910;29;20051;-69
2024/01/12 04:39:41;;;;;;;48.88;16.70;;;;;;;;;;4930829;29;20634;-69
2024/01/12 04:42:08;;;;;;;43.25;15.68;;;;;;;;;;4932180;29;20052;-69
2024/01/12 04:44:34;;;;;;;43.92;15.48;;;;;;;;;;4931839;29;20059;-69
2024/01/12 04:47:04;;;;;;;43.30;13.82;;;;;;;;;;4931847;29;20428;-69
2024/01/12 04:49:30;;;;;;;42.35;14.85;;;;;;;;;;4930901;29;20143;-69
2024/01/12 04:51:57;;;;;;;37.92;13.32;;;;;;;;;;4931642;29;20142;-69
2024/01/12 04:54:23;;;;;;;33.90;12.68;;;;;;;;;;4932194;29;20131;-69
2024/01/12 04:56:50;;;;;;;34.42;12.40;;;;;;;;;;4931906;29;20047;-71
2024/01/12 04:59:16;;;;;;;35.83;13.35;;;;;;;;;;4911614;29;20048;-70
2024/01/12 05:01:43;;;;;;;33.22;12.20;;;;;;;;;;4912714;29;20051;-70
2024/01/12 05:04:11;;;;;;;32.55;12.07;;;;;;;;;;4913058;29;20052;-70
2024/01/12 05:06:37;;;;;;;33.97;13.73;;;;;;;;;;4911980;29;20123;-70
2024/01/12 05:09:06;;;;;;;33.00;12.60;;;;;;;;;;4912950;29;20608;-70
2024/01/12 05:11:33;;;;;;;33.83;11.98;;;;;;;;;;4912368;29;20048;-70
2024/01/12 05:14:00;;;;;;;29.45;11.65;;;;;;;;;;4912411;29;20436;-70
2024/01/12 05:16:26;;;;;;;38.55;13.15;;;;;;;;;;4912858;29;20147;-71
2024/01/12 05:18:52;;;;;;;32.00;12.70;;;;;;;;;;4915917;29;20143;-71
2024/01/12 05:21:19;;;;;;;31.98;12.77;;;;;;;;;;4930950;29;20047;-71
2024/01/12 05:23:45;;;;;;;34.40;13.55;;;;;;;;;;4931647;29;20044;-71
2024/01/12 05:26:12;;;;;;;40.58;15.05;;;;;;;;;;4931439;29;20057;-71
2024/01/12 05:28:39;;;;;;;42.33;14.88;;;;;;;;;;4931153;29;20460;-71
2024/01/12 05:31:08;;;;;;;46.42;15.05;;;;;;;;;;4931107;29;20134;-71
2024/01/12 05:33:34;;;;;;;36.63;12.93;;;;;;;;;;4931219;29;20048;-71
2024/01/12 05:36:01;;;;;;;60.83;17.17;;;;;;;;;;4931312;29;20587;-71
2024/01/12 05:38:28;;;;;;;48.83;15.23;;;;;;;;;;4931083;29;20051;-71
2024/01/12 05:40:54;;;;;;;48.03;16.77;;;;;;;;;;4931432;29;20602;-71
2024/01/12 05:43:23;;;;;;;43.05;13.77;;;;;;;;;;4931240;29;20073;-71
2024/01/12 05:45:50;;;;;;;43.60;15.80;;;;;;;;;;4931380;29;20182;-71
2024/01/12 05:48:16;;;;;;;39.10;13.20;;;;;;;;;;4931154;29;20047;-71
2024/01/12 05:50:43;;;;;;;35.20;13.07;;;;;;;;;;4913311;29;20060;-71
2024/01/12 05:53:09;;;;;;;45.60;14.68;;;;;;;;;;4914396;29;20051;-72
2024/01/12 05:55:36;;;;;;;40.65;15.43;;;;;;;;;;4931582;29;20051;-71
2024/01/12 05:58:03;;;;;;;49.63;15.60;;;;;;;;;;4931907;29;20044;-71
2024/01/12 06:00:30;;;;;;;47.33;15.10;;;;;;;;;;4935026;29;20087;-72
2024/01/12 06:02:57;;;;;;;37.03;13.32;;;;;;;;;;4935637;29;20107;-72
2024/01/12 06:05:23;;;;;;;48.63;17.10;;;;;;;;;;4932927;29;20538;-72
2024/01/12 06:07:50;;;;;;;48.67;15.15;;;;;;;;;;4931605;29;20052;-72
2024/01/12 06:10:16;;;;;;;43.70;15.07;;;;;;;;;;4930097;29;20444;-72
2024/01/12 06:12:43;;;;;;;41.08;15.60;;;;;;;;;;4930908;29;20066;-72
2024/01/12 06:15:09;;;;;;;44.72;17.23;;;;;;;;;;4930968;29;20055;-71
2024/01/12 06:17:36;;;;;;;52.03;16.75;;;;;;;;;;4931071;29;20156;-71
2024/01/12 06:20:03;;;;;;;47.00;16.65;;;;;;;;;;4930393;29;20043;-71
2024/01/12 06:22:29;;;;;;;45.50;15.52;;;;;;;;;;4931890;29;20052;-71
2024/01/12 06:24:56;;;;;;;46.03;16.52;;;;;;;;;;4935324;29;20504;-73
2024/01/12 06:27:22;;;;;;;46.72;16.88;;;;;;;;;;4934712;29;20116;-72
2024/01/12 06:29:49;;;;;;;47.42;16.23;;;;;;;;;;4917703;29;20078;-72
2024/01/12 06:32:15;;;;;;;51.95;17.20;;;;;;;;;;4934321;29;20055;-73
2024/01/12 06:34:42;;;;;;;49.05;16.73;;;;;;;;;;4934863;29;20658;-71
2024/01/12 06:37:08;;;;;;;51.05;16.48;;;;;;;;;;4934392;29;20051;-71
2024/01/12 06:39:35;;;;;;;54.95;17.25;;;;;;;;;;4935073;29;20060;-72
2024/01/12 06:42:04;;;;;;;49.20;16.88;;;;;;;;;;4934440;29;20629;-71
2024/01/12 06:44:30;;;;;;;49.88;17.02;;;;;;;;;;4934434;29;20046;-73
2024/01/12 06:46:57;;;;;;;44.83;15.68;;;;;;;;;;4934307;29;20048;-72
2024/01/12 06:49:23;;;;;;;47.60;18.10;;;;;;;;;;4934753;29;20115;-72
2024/01/12 06:51:50;;;;;;;45.13;15.27;;;;;;;;;;4933436;29;20059;-72
2024/01/12 06:54:16;;;;;;;41.33;14.27;;;;;;;;;;4934231;29;20539;-72
2024/01/12 06:56:45;;;;;;;42.10;15.10;;;;;;;;;;4934091;29;20058;-71
2024/01/12 06:59:12;;;;;;;40.40;14.50;;;;;;;;;;4914067;29;20051;-72
2024/01/12 07:01:38;;;;;;;41.63;15.13;;;;;;;;;;4913713;29;20056;-73
2024/01/12 07:04:04;;;;;;;50.22;17.15;;;;;;;;;;4915419;29;20047;-72
2024/01/12 07:06:31;;;;;;;44.33;14.45;;;;;;;;;;4915151;29;20106;-71
2024/01/12 07:08:58;;;;;;;44.03;15.32;;;;;;;;;;4914303;29;20124;-72
2024/01/12 07:11:24;;;;;;;40.00;13.30;;;;;;;;;;4914448;29;20056;-72
2024/01/12 07:13:51;;;;;;;28.70;10.98;;;;;;;;;;4913643;29;20548;-72
2024/01/12 07:16:23;;;;;;;23.65;9.90;;;;;;;;;;4914716;29;20139;-71
2024/01/12 07:18:49;;;;;;;24.25;8.93;;;;;;;;;;4914404;29;20048;-72
2024/01/12 07:21:16;;;;;;;28.67;10.52;;;;;;;;;;4920084;29;20075;-72
2024/01/12 07:23:43;;;;;;;23.77;10.38;;;;;;;;;;4933616;29;20070;-71
2024/01/12 07:26:09;;;;;;;25.55;10.13;;;;;;;;;;4934041;29;20090;-73
2024/01/12 07:28:36;;;;;;;28.65;11.05;;;;;;;;;;4916451;29;20150;-71
2024/01/12 07:31:02;;;;;;;23.25;10.50;;;;;;;;;;4933364;29;20111;-72
2024/01/12 07:33:28;;;;;;;27.58;10.50;;;;;;;;;;4933433;29;20550;-73
2024/01/12 07:35:58;;;;;;;29.92;10.05;;;;;;;;;;4916720;29;20055;-72
2024/01/12 07:38:25;;;;;;;23.58;9.30;;;;;;;;;;4933380;29;20047;-72
2024/01/12 07:40:54;;;;;;;18.58;7.95;;;;;;;;;;4933329;29;20066;-73
2024/01/12 07:43:20;;;;;;;19.83;8.32;;;;;;;;;;4932993;29;20115;-72
2024/01/12 07:45:47;;;;;;;20.20;7.80;;;;;;;;;;4933464;29;20107;-72
2024/01/12 07:48:13;;;;;;;23.50;9.90;;;;;;;;;;4932664;29;20055;-72
2024/01/12 07:50:40;;;;;;;19.50;7.60;;;;;;;;;;4932768;29;20062;-72
2024/01/12 07:53:06;;;;;;;23.60;9.18;;;;;;;;;;4932494;29;20550;-72
2024/01/12 07:55:33;;;;;;;17.15;7.75;;;;;;;;;;4933322;29;20411;-72
2024/01/12 07:57:59;;;;;;;23.85;8.75;;;;;;;;;;4912805;29;20048;-72
2024/01/12 08:00:26;;;;;;;16.90;7.85;;;;;;;;;;4913981;29;20056;-72
2024/01/12 08:02:52;;;;;;;23.10;8.85;;;;;;;;;;4913442;29;20139;-72
2024/01/12 08:05:19;;;;;;;22.15;8.85;;;;;;;;;;4914264;29;20184;-72
2024/01/12 08:07:46;;;;;;;19.90;7.93;;;;;;;;;;4914043;29;20080;-72
2024/01/12 08:10:13;;;;;;;20.35;7.45;;;;;;;;;;4913830;29;20048;-72
2024/01/12 08:12:39;;;;;;;22.48;7.65;;;;;;;;;;4913976;29;20071;-73
2024/01/12 08:15:09;;;;;;;16.50;7.93;;;;;;;;;;4913724;29;20083;-72
2024/01/12 08:17:39;;;;;;;16.65;7.28;;;;;;;;;;4914036;29;20430;-72
2024/01/12 08:20:06;;;;;;;18.95;8.23;;;;;;;;;;4913805;29;20074;-72
2024/01/12 08:22:33;;;;;;;14.20;6.43;;;;;;;;;;4915206;29;20048;-73
2024/01/12 08:25:00;;;;;;;20.08;6.55;;;;;;;;;;4933041;29;20051;-72
2024/01/12 08:27:27;;;;;;;15.52;8.35;;;;;;;;;;4944774;29;20047;-73
2024/01/12 08:29:55;;;;;;;16.30;7.38;;;;;;;;;;4951954;29;20047;-71
2024/01/12 08:32:21;;;;;;;20.00;8.07;;;;;;;;;;4951577;29;20059;-72
2024/01/12 08:34:48;;;;;;;15.30;7.03;;;;;;;;;;4951775;29;20059;-72
2024/01/12 08:37:14;;;;;;;16.33;7.50;;;;;;;;;;4951432;28;20101;-71
2024/01/12 08:39:41;;;;;;;18.58;8.43;;;;;;;;;;4951521;28;20172;-72
2024/01/12 08:42:07;;;;;;;18.65;7.47;;;;;;;;;;4950914;28;20051;-71
2024/01/12 08:44:34;;;;;;;18.80;8.35;;;;;;;;;;4951155;29;20103;-72
2024/01/12 08:47:00;;;;;;;12.90;6.53;;;;;;;;;;4951106;28;20081;-71
2024/01/12 08:49:26;;;;;;;13.25;6.45;;;;;;;;;;4934237;29;20082;-71
2024/01/12 08:51:56;;;;;;;16.42;6.35;;;;;;;;;;4933976;28;20087;-71
2024/01/12 08:54:22;;;;;;;20.30;7.07;;;;;;;;;;4950497;28;20554;-72
2024/01/12 08:56:51;;;;;;;18.02;7.40;;;;;;;;;;4950637;29;20053;-72
2024/01/12 08:59:20;;;;;;;15.95;7.10;;;;;;;;;;4951144;29;20047;-72
2024/01/12 09:01:46;;;;;;;22.83;8.20;;;;;;;;;;4934342;29;20070;-72
2024/01/12 09:04:13;;;;;;;22.48;9.10;;;;;;;;;;4951215;29;20051;-72
2024/01/12 09:06:40;;;;;;;19.20;9.40;;;;;;;;;;4951270;29;20134;-71
2024/01/12 09:09:07;;;;;;;23.17;9.45;;;;;;;;;;4933939;29;20063;-71
2024/01/12 09:11:34;;;;;;;29.83;11.35;;;;;;;;;;4950640;29;20079;-73
2024/01/12 09:14:00;;;;;;;28.05;10.93;;;;;;;;;;4949816;29;20134;-72
2024/01/12 09:16:27;;;;;;;32.58;11.82;;;;;;;;;;4950993;29;20062;-73
2024/01/12 09:18:53;;;;;;;31.27;11.40;;;;;;;;;;4950833;29;20093;-72
2024/01/12 09:21:20;;;;;;;25.65;10.43;;;;;;;;;;4950949;29;20044;-73
2024/01/12 09:23:46;;;;;;;34.90;11.00;;;;;;;;;;4950323;28;20095;-72
2024/01/12 09:26:13;;;;;;;36.38;13.18;;;;;;;;;;4951559;29;20138;-72
2024/01/12 09:28:40;;;;;;;31.00;12.38;;;;;;;;;;4934092;29;20051;-72
2024/01/12 09:31:06;;;;;;;36.30;11.90;;;;;;;;;;4950817;29;20055;-72
2024/01/12 09:33:33;;;;;;;32.42;10.55;;;;;;;;;;4951110;29;20219;-72
2024/01/12 09:36:00;;;;;;;31.13;11.10;;;;;;;;;;4951436;29;20050;-72
2024/01/12 09:38:26;;;;;;;30.70;12.63;;;;;;;;;;4954694;29;20052;-73
2024/01/12 09:40:53;;;;;;;27.83;10.15;;;;;;;;;;4952687;28;20055;-72
2024/01/12 09:43:20;;;;;;;29.58;10.45;;;;;;;;;;4950815;29;20142;-72
2024/01/12 09:45:49;;;;;;;28.75;10.30;;;;;;;;;;4933865;29;20122;-72
2024/01/12 09:48:16;;;;;;;27.42;10.85;;;;;;;;;;4950983;29;20385;-72
2024/01/12 09:50:43;;;;;;;26.23;10.32;;;;;;;;;;4951222;28;20051;-72
2024/01/12 09:53:10;;;;;;;27.80;11.38;;;;;;;;;;4951358;28;20523;-73
2024/01/12 09:55:36;;;;;;;24.45;10.05;;;;;;;;;;4949682;28;20066;-73
2024/01/12 09:58:04;;;;;;;25.80;10.18;;;;;;;;;;4950831;28;20312;-71
2024/01/12 10:00:34;;;;;;;34.28;10.75;;;;;;;;;;4954509;29;20098;-73
2024/01/12 10:03:01;;;;;;;25.50;9.65;;;;;;;;;;4954293;29;20047;-71
2024/01/12 10:05:27;;;;;;;27.88;11.00;;;;;;;;;;4954506;29;20063;-71
2024/01/12 10:07:54;;;;;;;28.92;10.05;;;;;;;;;;4954221;29;20051;-73
2024/01/12 10:10:20;;;;;;;24.92;10.13;;;;;;;;;;4954102;29;20400;-74
2024/01/12 10:12:50;;;;;;;21.38;9.75;;;;;;;;;;4952791;29;20150;-73
2024/01/12 10:15:18;;;;;;;24.45;10.45;;;;;;;;;;4954778;29;20059;-72
2024/01/12 10:17:49;;;;;;;27.40;9.60;;;;;;;;;;4954272;29;20279;-72
2024/01/12 10:20:16;;;;;;;31.80;9.88;;;;;;;;;;4954321;29;20054;-72
2024/01/12 10:22:43;;;;;;;30.45;10.45;;;;;;;;;;4954162;29;20104;-73
2024/01/12 10:25:13;;;;;;;29.05;9.98;;;;;;;;;;4953002;28;20400;-73
2024/01/12 10:27:39;;;;;;;22.20;9.30;;;;;;;;;;4954096;29;20057;-72
2024/01/12 10:30:08;;;;;;;21.02;8.98;;;;;;;;;;4953806;29;20439;-73
2024/01/12 10:32:34;;;;;;;20.23;9.15;;;;;;;;;;4936248;28;20055;-72
2024/01/12 10:35:02;;;;;;;21.95;9.45;;;;;;;;;;4962831;28;20043;-73
2024/01/12 10:37:29;;;;;;;20.17;8.93;;;;;;;;;;4956700;28;20051;-73
2024/01/12 10:39:56;;;;;;;24.90;10.18;;;;;;;;;;4956003;28;20690;-73
2024/01/12 10:42:24;;;;;;;23.35;9.90;;;;;;;;;;4952314;29;20066;-73
2024/01/12 10:44:51;;;;;;;25.00;10.05;;;;;;;;;;4939933;29;20070;-73
2024/01/12 10:47:20;;;;;;;19.70;8.25;;;;;;;;;;4953724;29;20138;-73
2024/01/12 10:49:46;;;;;;;27.35;10.88;;;;;;;;;;4951895;29;20766;-73
2024/01/12 10:52:26;;;;;;;26.55;10.00;;;;;;;;;;4952893;28;20118;-73
2024/01/12 10:55:05;;;;;;;27.10;11.85;;;;;;;;;;4952852;28;20224;-73
2024/01/12 10:57:35;;;;;;;20.70;10.20;;;;;;;;;;4957096;29;20063;-73
2024/01/12 11:00:02;;;;;;;27.15;11.05;;;;;;;;;;4955331;29;20043;-73
2024/01/12 11:02:30;;;;;;;29.63;12.82;;;;;;;;;;4956637;29;20066;-73
2024/01/12 11:04:57;;;;;;;35.67;12.75;;;;;;;;;;4956558;29;20122;-73
2024/01/12 11:07:24;;;;;;;31.27;11.13;;;;;;;;;;4957702;29;20043;-74
2024/01/12 11:09:51;;;;;;;26.80;10.77;;;;;;;;;;4954509;28;20584;-73
2024/01/12 11:12:23;;;;;;;31.45;11.45;;;;;;;;;;4954202;29;20523;-74
2024/01/12 11:14:49;;;;;;;;;;;;;;;;;;4953968;29;20054;-72
2024/01/12 11:17:16;;;;;;;35.40;11.32;;;;;;;;;;4955926;29;19926;-73
2024/01/12 11:19:45;;;;;;;33.25;10.95;;;;;;;;;;4958002;29;20138;-72
2024/01/12 11:22:12;;;;;;;33.55;11.48;;;;;;;;;;4952863;29;20047;-72
2024/01/12 11:24:40;;;;;;;36.63;13.45;;;;;;;;;;4952600;28;20161;-72
2024/01/12 11:27:06;;;;;;;40.40;12.20;;;;;;;;;;4952547;28;20051;-75
2024/01/12 11:29:36;;;;;;;33.80;13.30;;;;;;;;;;4952740;29;20058;-73
2024/01/12 11:32:03;;;;;;;31.80;12.45;;;;;;;;;;4952624;29;20054;-73
2024/01/12 11:34:30;;;;;;;33.70;11.20;;;;;;;;;;4952589;29;20047;-72
2024/01/12 11:36:58;;;;;;;28.58;9.73;;;;;;;;;;4952512;28;20699;-72
2024/01/12 11:39:24;;;;;;;37.08;11.45;;;;;;;;;;4952519;28;20051;-72
2024/01/12 11:41:54;;;;;;;34.67;11.43;;;;;;;;;;4952192;29;20538;-73
2024/01/12 11:44:20;;;;;;;31.08;12.80;;;;;;;;;;4952849;29;20085;-72
2024/01/12 11:46:48;;;;;;;36.15;12.90;;;;;;;;;;4952650;28;20054;-73
2024/01/12 11:49:15;;;;;;;30.60;11.00;;;;;;;;;;4952081;29;20059;-72
2024/01/12 11:51:41;;;;;;;29.65;11.75;;;;;;;;;;4952348;29;20048;-73
2024/01/12 11:54:09;;;;;;;32.63;10.88;;;;;;;;;;4934948;29;20047;-72
2024/01/12 11:56:36;;;;;;;28.00;10.63;;;;;;;;;;4930925;29;20457;-72
2024/01/12 11:59:02;;;;;;;31.33;10.15;;;;;;;;;;4941343;29;20043;-72
2024/01/12 12:01:29;;;;;;;32.60;13.00;;;;;;;;;;4951908;29;20061;-72
2024/01/12 12:03:56;;;;;;;42.53;13.98;;;;;;;;;;4951066;29;20119;-73
2024/01/12 12:06:22;;;;;;;39.53;13.32;;;;;;;;;;4952147;29;20518;-72
2024/01/12 12:08:52;;;;;;;45.22;14.45;;;;;;;;;;4952047;29;20043;-72
2024/01/12 12:11:19;;;;;;;38.10;13.27;;;;;;;;;;4952325;29;20051;-72
2024/01/12 12:13:46;;;;;;;38.83;13.30;;;;;;;;;;4951891;29;20666;-71
2024/01/12 12:16:13;;;;;;;30.70;9.77;;;;;;;;;;4934835;29;20419;-72
2024/01/12 12:18:39;;;;;;;40.28;14.05;;;;;;;;;;4952299;29;20047;-72
2024/01/12 12:21:06;;;;;;;38.03;13.20;;;;;;;;;;4951075;28;20047;-72
2024/01/12 12:23:33;;;;;;;44.65;13.05;;;;;;;;;;4952154;29;20055;-73
2024/01/12 12:26:00;;;;;;;39.10;13.93;;;;;;;;;;4951508;28;20107;-72
2024/01/12 12:28:27;;;;;;;43.75;15.10;;;;;;;;;;4952027;29;20123;-72
2024/01/12 12:30:53;;;;;;;50.20;14.38;;;;;;;;;;4952230;29;20608;-72
2024/01/12 12:33:22;;;;;;;38.42;11.48;;;;;;;;;;4957085;28;20050;-71
2024/01/12 12:36:00;;;;;;;40.08;13.80;;;;;;;;;;4954698;28;20126;-72
2024/01/12 12:38:27;;;;;;;41.95;12.38;;;;;;;;;;4934685;29;20051;-72
2024/01/12 12:40:54;;;;;;;34.33;12.90;;;;;;;;;;4951267;29;20047;-72
2024/01/12 12:43:21;;;;;;;40.00;14.30;;;;;;;;;;4952070;29;20051;-72
2024/01/12 12:45:52;;;;;;;39.38;13.70;;;;;;;;;;4951659;29;20122;-71
2024/01/12 12:48:18;;;;;;;38.47;13.00;;;;;;;;;;4951423;29;20070;-74
2024/01/12 12:50:45;;;;;;;43.95;14.48;;;;;;;;;;4952553;28;20540;-72
2024/01/12 12:53:11;;;;;;;48.80;15.55;;;;;;;;;;4952736;29;20484;-72
2024/01/12 12:55:38;;;;;;;37.75;13.98;;;;;;;;;;4952499;29;20055;-71
2024/01/12 12:58:04;;;;;;;40.17;15.80;;;;;;;;;;4932321;29;20052;-71
2024/01/12 13:00:31;;;;;;;52.80;16.17;;;;;;;;;;4952520;29;20055;-72
2024/01/12 13:02:58;;;;;;;47.55;13.63;;;;;;;;;;4952428;29;20053;-71
2024/01/12 13:05:24;;;;;;;47.83;14.10;;;;;;;;;;4952226;29;20055;-72
2024/01/12 13:07:51;;;;;;;53.00;15.15;;;;;;;;;;4952611;29;20043;-72
2024/01/12 13:10:17;;;;;;;61.13;16.08;;;;;;;;;;4952314;29;20047;-72
2024/01/12 13:12:43;;;;;;;54.22;15.15;;;;;;;;;;4951381;29;20044;-72
2024/01/12 13:15:11;;;;;;;51.83;15.25;;;;;;;;;;4952420;29;20047;-72
2024/01/12 13:17:37;;;;;;;53.08;15.73;;;;;;;;;;4953443;29;20126;-72
2024/01/12 13:20:05;;;;;;;51.95;16.58;;;;;;;;;;4951534;29;20563;-72
2024/01/12 13:22:31;;;;;;;55.28;17.88;;;;;;;;;;4952064;29;20051;-72
2024/01/12 13:24:59;;;;;;;66.25;19.17;;;;;;;;;;4951797;29;20055;-72
2024/01/12 13:27:26;;;;;;;63.10;18.00;;;;;;;;;;4952266;28;20094;-74
2024/01/12 13:29:53;;;;;;;67.60;20.67;;;;;;;;;;4934903;29;20106;-72
2024/01/12 13:32:19;;;;;;;58.53;16.85;;;;;;;;;;4951726;29;20149;-73
2024/01/12 13:34:46;;;;;;;59.95;18.83;;;;;;;;;;4951823;28;20138;-73
2024/01/12 13:37:12;;;;;;;64.68;19.90;;;;;;;;;;4951502;29;20082;-72
2024/01/12 13:39:39;;;;;;;73.22;21.38;;;;;;;;;;4951788;29;20658;-71
2024/01/12 13:42:05;;;;;;;61.78;19.13;;;;;;;;;;4952103;29;20110;-71
2024/01/12 13:44:32;;;;;;;55.55;19.95;;;;;;;;;;4953162;28;20055;-72
2024/01/12 13:46:58;;;;;;;60.08;20.60;;;;;;;;;;4936283;29;20077;-73
2024/01/12 13:49:25;;;;;;;62.33;20.15;;;;;;;;;;4952402;28;20051;-72
2024/01/12 13:51:51;;;;;;;58.97;19.60;;;;;;;;;;4933493;29;20551;-71
2024/01/12 13:54:18;;;;;;;61.55;21.10;;;;;;;;;;4950575;29;20051;-71
2024/01/12 13:56:45;;;;;;;58.22;21.17;;;;;;;;;;4950877;29;20044;-71
2024/01/12 13:59:11;;;;;;;55.00;19.55;;;;;;;;;;4950887;28;20411;-72
2024/01/12 14:01:38;;;;;;;63.47;22.23;;;;;;;;;;4951247;28;20065;-71
2024/01/12 14:04:05;;;;;;;49.00;19.98;;;;;;;;;;4950649;29;20496;-72
2024/01/12 14:06:35;;;;;;;59.55;22.77;;;;;;;;;;4950736;29;20480;-71
2024/01/12 14:09:04;;;;;;;56.70;20.88;;;;;;;;;;4949934;29;20078;-72
2024/01/12 14:11:33;;;;;;;57.50;21.05;;;;;;;;;;4950195;29;20082;-70
2024/01/12 14:14:00;;;;;;;56.08;21.10;;;;;;;;;;4949922;29;20062;-71
2024/01/12 14:16:27;;;;;;;54.78;20.60;;;;;;;;;;4950309;29;20051;-71